Terminal Aerodrome Forecast
Issued by NWS Louisville, KY

Home | Current Version | Previous Version | Text Only | Print | Product List | Glossary On
Versions: 1 2 3 4 5 6 7 8 9 10 11 12 13 14 15 16 17
340
FTUS43 KLMK 182339
TAFSDF
TAF
KSDF 182339Z 1900/2006 13007KT P6SM BKN250
     FM190500 16007KT P6SM SCT030 BKN045 WS020/20035KT
     FM190800 19009KT P6SM VCSH OVC015 WS020/21040KT
      TEMPO 1909/1913 4SM -SHRA OVC007
     FM191500 20015G23KT P6SM OVC015
     FM192000 20014G25KT P6SM SCT025 BKN040
     FM200300 19012G18KT P6SM BKN200 WS020/20045KT=

USA.gov is the U.S. government's official web portal to all federal, state and local government web resources and services.